Time,TemperatureF,DewpointF,PressureIn,WindDirection,WindDirectionDegrees,WindSpeedMPH,WindSpeedGustMPH,Humidity,HourlyPrecipIn,Conditions,Clouds,dailyrainin,SolarRadiationWatts/m^2,SoftwareType,DateUTC
2013-04-30 04:00:00,54.0,50.0,30.14,SSE,153,11.0,-999.0,85,-99.99,,,-99.99,0.000000,,2013-04-30 08:00:00,
2013-04-30 04:52:00,54.0,50.0,30.14,SSE,153,11.0,-999.0,85,-99.99,,,-99.99,0.000000,,2013-04-30 08:52:00,
2013-04-30 10:00:00,59.0,53.0,30.21,SSE,150,9.0,-999.0,81,-99.99,,,-99.99,209.399994,,2013-04-30 14:00:00,
2013-04-30 10:52:00,59.0,53.0,30.21,SSE,150,9.0,-999.0,81,-99.99,,,-99.99,209.399994,,2013-04-30 14:52:00,
2013-04-30 11:00:00,61.0,54.0,30.22,SSE,154,12.0,-999.0,78,-99.99,,,-99.99,559.900024,,2013-04-30 15:00:00,
2013-04-30 11:53:00,61.0,54.0,30.22,SSE,154,12.0,-999.0,78,-99.99,,,-99.99,559.900024,,2013-04-30 15:53:00,
2013-04-30 12:00:00,62.0,52.0,30.21,SE,143,13.0,-999.0,71,-99.99,,,-99.99,531.900024,,2013-04-30 16:00:00,
2013-04-30 12:52:00,62.0,52.0,30.21,SE,143,13.0,-999.0,71,-99.99,,,-99.99,531.900024,,2013-04-30 16:52:00,
2013-04-30 13:00:00,64.0,53.0,30.21,SE,144,16.0,-999.0,66,-99.99,,,-99.99,831.000000,,2013-04-30 17:00:00,
2013-04-30 13:53:00,64.0,53.0,30.21,SE,144,16.0,-999.0,66,-99.99,,,-99.99,831.000000,,2013-04-30 17:53:00,
2013-04-30 14:00:00,65.0,53.0,30.21,SSE,149,14.0,-999.0,66,-99.99,,,-99.99,674.700012,,2013-04-30 18:00:00,
2013-04-30 14:52:00,65.0,53.0,30.21,SSE,149,14.0,-999.0,66,-99.99,,,-99.99,674.700012,,2013-04-30 18:52:00,
2013-04-30 15:00:00,66.0,51.0,30.21,SSE,159,13.0,-999.0,58,-99.99,,,-99.99,644.599976,,2013-04-30 19:00:00,
2013-04-30 15:52:00,66.0,51.0,30.21,SSE,159,13.0,-999.0,58,-99.99,,,-99.99,644.599976,,2013-04-30 19:52:00,
2013-04-30 17:00:00,68.0,51.0,30.21,South,169,13.0,-999.0,55,-99.99,,,-99.99,572.099976,,2013-04-30 21:00:00,
2013-04-30 17:53:00,68.0,51.0,30.21,South,169,13.0,-999.0,55,-99.99,,,-99.99,572.099976,,2013-04-30 21:53:00,
2013-04-30 18:00:00,68.0,50.0,30.20,SSE,168,13.0,-999.0,54,-99.99,,,-99.99,435.600006,,2013-04-30 22:00:00,
2013-04-30 18:53:00,68.0,50.0,30.20,SSE,168,13.0,-999.0,54,-99.99,,,-99.99,435.600006,,2013-04-30 22:53:00,
2013-04-30 19:00:00,66.0,49.0,30.20,South,180,13.0,-999.0,55,-99.99,,,-99.99,244.699997,,2013-04-30 23:00:00,
2013-04-30 19:52:00,66.0,49.0,30.20,South,180,13.0,-999.0,55,-99.99,,,-99.99,244.699997,,2013-04-30 23:52:00,
2013-04-30 20:00:00,62.0,50.0,30.20,SSE,165,10.0,-999.0,66,-99.99,,,-99.99,45.980000,,2013-05-01 00:00:00,
2013-04-30 20:52:00,62.0,50.0,30.20,SSE,165,10.0,-999.0,66,-99.99,,,-99.99,45.980000,,2013-05-01 00:52:00,
2013-04-30 21:00:00,60.0,50.0,30.22,SSE,155,9.0,-999.0,69,-99.99,,,-99.99,0.880000,,2013-05-01 01:00:00,
2013-04-30 21:52:00,60.0,50.0,30.22,SSE,155,9.0,-999.0,69,-99.99,,,-99.99,0.880000,,2013-05-01 01:52:00,
2013-04-30 22:00:00,58.0,50.0,30.24,SSE,158,8.0,-999.0,73,-99.99,,,-99.99,0.000000,,2013-05-01 02:00:00,
2013-04-30 22:52:00,58.0,50.0,30.24,SSE,158,8.0,-999.0,73,-99.99,,,-99.99,0.000000,,2013-05-01 02:52:00,
2013-04-30 23:00:00,58.0,50.0,30.25,SSE,161,8.0,-999.0,73,-99.99,,,-99.99,0.000000,,2013-05-01 03:00:00,
2013-04-30 23:53:00,58.0,50.0,30.25,SSE,161,8.0,-999.0,73,-99.99,,,-99.99,0.000000,,2013-05-01 03:53:00,